sensor_id;sensor_type;location;lat;lon;timestamp;temperature;humidity
18085;DHT22;9169;44.492;11.372;2023-04-06T00:00:36;11.10;25.80
18085;DHT22;9169;44.492;11.372;2023-04-06T00:03:05;11.10;25.70
18085;DHT22;9169;44.492;11.372;2023-04-06T00:05:34;11.10;25.70
18085;DHT22;9169;44.492;11.372;2023-04-06T00:08:04;11.10;25.60
18085;DHT22;9169;44.492;11.372;2023-04-06T00:10:32;11.10;25.60
18085;DHT22;9169;44.492;11.372;2023-04-06T00:13:01;11.10;25.60
18085;DHT22;9169;44.492;11.372;2023-04-06T00:15:30;11.10;25.60
18085;DHT22;9169;44.492;11.372;2023-04-06T00:17:59;11.10;25.50
18085;DHT22;9169;44.492;11.372;2023-04-06T00:20:28;11.00;25.50
18085;DHT22;9169;44.492;11.372;2023-04-06T00:22:57;11.00;25.50
18085;DHT22;9169;44.492;11.372;2023-04-06T00:25:27;11.00;25.50
18085;DHT22;9169;44.492;11.372;2023-04-06T00:27:56;11.00;25.50
18085;DHT22;9169;44.492;11.372;2023-04-06T00:30:25;11.00;25.60
18085;DHT22;9169;44.492;11.372;2023-04-06T00:32:54;11.00;25.60
18085;DHT22;9169;44.492;11.372;2023-04-06T00:35:23;10.90;25.50
18085;DHT22;9169;44.492;11.372;2023-04-06T00:37:52;10.90;25.60
18085;DHT22;9169;44.492;11.372;2023-04-06T00:40:21;10.80;25.50
18085;DHT22;9169;44.492;11.372;2023-04-06T00:42:51;10.80;25.60
18085;DHT22;9169;44.492;11.372;2023-04-06T00:45:20;10.80;25.60
18085;DHT22;9169;44.492;11.372;2023-04-06T00:47:49;10.80;26.10
18085;DHT22;9169;44.492;11.372;2023-04-06T00:50:17;10.70;25.60
18085;DHT22;9169;44.492;11.372;2023-04-06T00:52:46;10.60;25.70
18085;DHT22;9169;44.492;11.372;2023-04-06T00:55:18;10.60;25.90
18085;DHT22;9169;44.492;11.372;2023-04-06T00:57:46;10.50;25.90
18085;DHT22;9169;44.492;11.372;2023-04-06T01:00:18;10.50;26.00
18085;DHT22;9169;44.492;11.372;2023-04-06T01:02:50;10.50;26.00
18085;DHT22;9169;44.492;11.372;2023-04-06T01:05:21;10.50;26.20
18085;DHT22;9169;44.492;11.372;2023-04-06T01:07:54;10.40;26.30
18085;DHT22;9169;44.492;11.372;2023-04-06T01:10:27;10.40;26.50
18085;DHT22;9169;44.492;11.372;2023-04-06T01:13:23;10.40;26.50
18085;DHT22;9169;44.492;11.372;2023-04-06T01:15:56;10.40;26.50
18085;DHT22;9169;44.492;11.372;2023-04-06T01:18:43;10.40;26.40
18085;DHT22;9169;44.492;11.372;2023-04-06T01:21:16;10.30;26.50
18085;DHT22;9169;44.492;11.372;2023-04-06T01:24:07;10.30;26.60
18085;DHT22;9169;44.492;11.372;2023-04-06T01:26:57;10.30;26.70
18085;DHT22;9169;44.492;11.372;2023-04-06T01:29:32;10.40;26.60
18085;DHT22;9169;44.492;11.372;2023-04-06T01:32:04;10.40;26.60
18085;DHT22;9169;44.492;11.372;2023-04-06T01:34:39;10.40;26.50
18085;DHT22;9169;44.492;11.372;2023-04-06T01:37:09;10.40;26.40
18085;DHT22;9169;44.492;11.372;2023-04-06T01:39:39;10.50;26.40
18085;DHT22;9169;44.492;11.372;2023-04-06T01:42:10;10.40;26.20
18085;DHT22;9169;44.492;11.372;2023-04-06T01:44:40;10.40;26.10
18085;DHT22;9169;44.492;11.372;2023-04-06T01:47:13;10.40;26.00
18085;DHT22;9169;44.492;11.372;2023-04-06T01:49:43;10.40;25.90
18085;DHT22;9169;44.492;11.372;2023-04-06T01:52:13;10.40;25.90
18085;DHT22;9169;44.492;11.372;2023-04-06T01:54:51;10.40;25.80
18085;DHT22;9169;44.492;11.372;2023-04-06T01:57:32;10.40;25.80
18085;DHT22;9169;44.492;11.372;2023-04-06T02:00:14;10.40;25.80
18085;DHT22;9169;44.492;11.372;2023-04-06T02:02:49;10.40;25.80
18085;DHT22;9169;44.492;11.372;2023-04-06T02:05:25;10.40;25.80
18085;DHT22;9169;44.492;11.372;2023-04-06T02:07:55;10.40;25.80
18085;DHT22;9169;44.492;11.372;2023-04-06T02:10:35;10.40;25.70
18085;DHT22;9169;44.492;11.372;2023-04-06T02:13:12;10.40;25.70
18085;DHT22;9169;44.492;11.372;2023-04-06T02:15:46;10.40;25.70
18085;DHT22;9169;44.492;11.372;2023-04-06T02:18:15;10.30;25.60
18085;DHT22;9169;44.492;11.372;2023-04-06T02:20:44;10.30;25.60
18085;DHT22;9169;44.492;11.372;2023-04-06T02:23:13;10.30;25.60
18085;DHT22;9169;44.492;11.372;2023-04-06T02:25:44;10.30;25.60
18085;DHT22;9169;44.492;11.372;2023-04-06T02:28:13;10.30;25.60
18085;DHT22;9169;44.492;11.372;2023-04-06T02:30:42;10.30;25.50
18085;DHT22;9169;44.492;11.372;2023-04-06T02:33:11;10.30;25.70
18085;DHT22;9169;44.492;11.372;2023-04-06T02:35:44;10.30;25.80
18085;DHT22;9169;44.492;11.372;2023-04-06T02:38:13;10.20;25.90
18085;DHT22;9169;44.492;11.372;2023-04-06T02:40:41;10.10;26.00
18085;DHT22;9169;44.492;11.372;2023-04-06T02:43:30;10.10;26.00
18085;DHT22;9169;44.492;11.372;2023-04-06T02:46:25;10.10;25.90
18085;DHT22;9169;44.492;11.372;2023-04-06T02:48:54;10.10;25.80
18085;DHT22;9169;44.492;11.372;2023-04-06T02:51:25;10.10;25.80
18085;DHT22;9169;44.492;11.372;2023-04-06T02:53:58;10.10;25.90
18085;DHT22;9169;44.492;11.372;2023-04-06T02:56:27;10.00;26.30
18085;DHT22;9169;44.492;11.372;2023-04-06T02:58:57;10.00;26.30
18085;DHT22;9169;44.492;11.372;2023-04-06T03:01:29;9.90;26.70
18085;DHT22;9169;44.492;11.372;2023-04-06T03:04:01;9.90;26.80
18085;DHT22;9169;44.492;11.372;2023-04-06T03:06:30;9.80;26.80
18085;DHT22;9169;44.492;11.372;2023-04-06T03:09:09;9.70;26.90
18085;DHT22;9169;44.492;11.372;2023-04-06T03:11:41;9.70;26.90
18085;DHT22;9169;44.492;11.372;2023-04-06T03:14:11;9.70;26.90
18085;DHT22;9169;44.492;11.372;2023-04-06T03:16:40;9.70;26.90
18085;DHT22;9169;44.492;11.372;2023-04-06T03:19:09;9.70;26.90
18085;DHT22;9169;44.492;11.372;2023-04-06T03:21:37;9.70;26.90
18085;DHT22;9169;44.492;11.372;2023-04-06T03:24:07;9.70;26.90
18085;DHT22;9169;44.492;11.372;2023-04-06T03:26:36;9.60;26.90
18085;DHT22;9169;44.492;11.372;2023-04-06T03:29:07;9.60;27.10
18085;DHT22;9169;44.492;11.372;2023-04-06T03:31:37;9.50;27.20
18085;DHT22;9169;44.492;11.372;2023-04-06T03:34:15;9.40;27.20
18085;DHT22;9169;44.492;11.372;2023-04-06T03:36:43;9.40;27.40
18085;DHT22;9169;44.492;11.372;2023-04-06T03:39:14;9.30;27.50
18085;DHT22;9169;44.492;11.372;2023-04-06T03:41:43;9.30;27.60
18085;DHT22;9169;44.492;11.372;2023-04-06T03:44:27;9.20;27.70
18085;DHT22;9169;44.492;11.372;2023-04-06T03:46:58;9.20;27.90
18085;DHT22;9169;44.492;11.372;2023-04-06T03:49:26;9.10;27.90
18085;DHT22;9169;44.492;11.372;2023-04-06T03:51:56;9.00;28.10
18085;DHT22;9169;44.492;11.372;2023-04-06T03:54:25;9.00;28.20
18085;DHT22;9169;44.492;11.372;2023-04-06T03:56:53;8.90;28.30
18085;DHT22;9169;44.492;11.372;2023-04-06T03:59:26;8.90;28.30
18085;DHT22;9169;44.492;11.372;2023-04-06T04:01:55;8.80;28.40
18085;DHT22;9169;44.492;11.372;2023-04-06T04:04:24;8.80;28.40
18085;DHT22;9169;44.492;11.372;2023-04-06T04:06:53;8.90;28.40
18085;DHT22;9169;44.492;11.372;2023-04-06T04:09:21;8.90;28.30
18085;DHT22;9169;44.492;11.372;2023-04-06T04:11:50;8.90;28.20
18085;DHT22;9169;44.492;11.372;2023-04-06T04:14:20;9.00;28.80
18085;DHT22;9169;44.492;11.372;2023-04-06T04:16:50;8.90;28.40
18085;DHT22;9169;44.492;11.372;2023-04-06T04:19:18;8.90;28.40
18085;DHT22;9169;44.492;11.372;2023-04-06T04:21:48;8.90;28.70
18085;DHT22;9169;44.492;11.372;2023-04-06T04:24:23;8.90;28.90
18085;DHT22;9169;44.492;11.372;2023-04-06T04:26:52;8.90;28.70
18085;DHT22;9169;44.492;11.372;2023-04-06T04:29:20;8.90;28.60
18085;DHT22;9169;44.492;11.372;2023-04-06T04:31:51;9.00;28.70
18085;DHT22;9169;44.492;11.372;2023-04-06T04:34:20;9.00;28.70
18085;DHT22;9169;44.492;11.372;2023-04-06T04:36:52;9.00;28.70
18085;DHT22;9169;44.492;11.372;2023-04-06T04:39:32;9.00;28.70
18085;DHT22;9169;44.492;11.372;2023-04-06T04:42:05;9.00;28.60
18085;DHT22;9169;44.492;11.372;2023-04-06T04:44:37;9.00;28.50
18085;DHT22;9169;44.492;11.372;2023-04-06T04:47:06;9.10;28.60
18085;DHT22;9169;44.492;11.372;2023-04-06T04:49:42;9.10;28.60
18085;DHT22;9169;44.492;11.372;2023-04-06T04:52:17;9.10;28.60
18085;DHT22;9169;44.492;11.372;2023-04-06T04:54:59;9.10;28.50
18085;DHT22;9169;44.492;11.372;2023-04-06T04:57:30;9.10;28.50
18085;DHT22;9169;44.492;11.372;2023-04-06T04:59:59;9.10;28.50
18085;DHT22;9169;44.492;11.372;2023-04-06T05:02:29;9.10;28.50
18085;DHT22;9169;44.492;11.372;2023-04-06T05:05:11;9.10;28.60
18085;DHT22;9169;44.492;11.372;2023-04-06T05:07:42;9.10;28.60
18085;DHT22;9169;44.492;11.372;2023-04-06T05:10:19;9.10;28.60
18085;DHT22;9169;44.492;11.372;2023-04-06T05:12:58;9.10;28.50
18085;DHT22;9169;44.492;11.372;2023-04-06T05:15:27;9.10;28.50
18085;DHT22;9169;44.492;11.372;2023-04-06T05:18:03;9.10;28.50
18085;DHT22;9169;44.492;11.372;2023-04-06T05:20:34;9.10;28.50
18085;DHT22;9169;44.492;11.372;2023-04-06T05:23:05;9.20;28.60
18085;DHT22;9169;44.492;11.372;2023-04-06T05:25:34;9.20;28.50
18085;DHT22;9169;44.492;11.372;2023-04-06T05:28:13;9.20;28.90
18085;DHT22;9169;44.492;11.372;2023-04-06T05:30:44;9.20;28.50
18085;DHT22;9169;44.492;11.372;2023-04-06T05:33:14;9.30;28.50
18085;DHT22;9169;44.492;11.372;2023-04-06T05:36:04;9.30;28.50
18085;DHT22;9169;44.492;11.372;2023-04-06T05:38:39;9.30;28.40
18085;DHT22;9169;44.492;11.372;2023-04-06T05:41:18;9.40;28.40
18085;DHT22;9169;44.492;11.372;2023-04-06T05:43:47;9.40;28.40
18085;DHT22;9169;44.492;11.372;2023-04-06T05:46:15;9.40;28.30
18085;DHT22;9169;44.492;11.372;2023-04-06T05:48:44;9.40;28.30
18085;DHT22;9169;44.492;11.372;2023-04-06T05:51:14;9.50;28.30
18085;DHT22;9169;44.492;11.372;2023-04-06T05:53:48;9.50;28.30
18085;DHT22;9169;44.492;11.372;2023-04-06T05:56:17;9.50;28.30
18085;DHT22;9169;44.492;11.372;2023-04-06T05:58:46;9.60;28.40
18085;DHT22;9169;44.492;11.372;2023-04-06T06:01:20;9.60;28.40
18085;DHT22;9169;44.492;11.372;2023-04-06T06:03:49;9.60;28.30
18085;DHT22;9169;44.492;11.372;2023-04-06T06:06:19;9.70;28.30
18085;DHT22;9169;44.492;11.372;2023-04-06T06:09:05;9.70;28.30
18085;DHT22;9169;44.492;11.372;2023-04-06T06:11:39;9.70;28.40
18085;DHT22;9169;44.492;11.372;2023-04-06T06:14:09;9.70;28.40
18085;DHT22;9169;44.492;11.372;2023-04-06T06:16:40;9.80;28.50
18085;DHT22;9169;44.492;11.372;2023-04-06T06:19:11;9.80;28.50
18085;DHT22;9169;44.492;11.372;2023-04-06T06:21:40;9.80;28.40
18085;DHT22;9169;44.492;11.372;2023-04-06T06:24:11;9.80;28.30
18085;DHT22;9169;44.492;11.372;2023-04-06T06:26:39;9.90;28.30
18085;DHT22;9169;44.492;11.372;2023-04-06T06:29:10;9.90;28.20
18085;DHT22;9169;44.492;11.372;2023-04-06T06:31:39;10.00;27.60
18085;DHT22;9169;44.492;11.372;2023-04-06T06:34:08;10.00;27.70
18085;DHT22;9169;44.492;11.372;2023-04-06T06:36:37;10.10;27.70
18085;DHT22;9169;44.492;11.372;2023-04-06T06:39:13;10.10;27.60
18085;DHT22;9169;44.492;11.372;2023-04-06T06:41:42;10.20;27.70
18085;DHT22;9169;44.492;11.372;2023-04-06T06:44:11;10.30;27.80
18085;DHT22;9169;44.492;11.372;2023-04-06T06:46:40;10.30;27.80
18085;DHT22;9169;44.492;11.372;2023-04-06T06:49:08;10.40;27.80
18085;DHT22;9169;44.492;11.372;2023-04-06T06:51:38;10.40;27.70
18085;DHT22;9169;44.492;11.372;2023-04-06T06:54:07;10.50;27.90
18085;DHT22;9169;44.492;11.372;2023-04-06T06:56:37;10.50;28.10
18085;DHT22;9169;44.492;11.372;2023-04-06T06:59:06;10.50;28.20
18085;DHT22;9169;44.492;11.372;2023-04-06T07:01:36;10.50;28.40
18085;DHT22;9169;44.492;11.372;2023-04-06T07:04:05;10.60;28.70
18085;DHT22;9169;44.492;11.372;2023-04-06T07:06:35;10.60;28.70
18085;DHT22;9169;44.492;11.372;2023-04-06T07:09:04;10.60;28.70
18085;DHT22;9169;44.492;11.372;2023-04-06T07:11:33;10.60;28.70
18085;DHT22;9169;44.492;11.372;2023-04-06T07:14:03;10.60;28.80
18085;DHT22;9169;44.492;11.372;2023-04-06T07:16:31;10.60;28.90
18085;DHT22;9169;44.492;11.372;2023-04-06T07:19:00;10.70;28.80
18085;DHT22;9169;44.492;11.372;2023-04-06T07:21:30;10.80;28.80
18085;DHT22;9169;44.492;11.372;2023-04-06T07:23:58;10.80;28.80
18085;DHT22;9169;44.492;11.372;2023-04-06T07:26:27;10.90;28.70
18085;DHT22;9169;44.492;11.372;2023-04-06T07:28:56;11.00;28.80
18085;DHT22;9169;44.492;11.372;2023-04-06T07:31:27;11.00;28.70
18085;DHT22;9169;44.492;11.372;2023-04-06T07:33:56;11.00;28.70
18085;DHT22;9169;44.492;11.372;2023-04-06T07:36:25;11.10;28.70
18085;DHT22;9169;44.492;11.372;2023-04-06T07:38:54;11.10;28.70
18085;DHT22;9169;44.492;11.372;2023-04-06T07:41:23;11.20;28.70
18085;DHT22;9169;44.492;11.372;2023-04-06T07:43:52;11.10;28.60
18085;DHT22;9169;44.492;11.372;2023-04-06T07:46:22;11.30;28.70
18085;DHT22;9169;44.492;11.372;2023-04-06T07:48:52;11.30;28.60
18085;DHT22;9169;44.492;11.372;2023-04-06T07:51:20;11.30;28.50
18085;DHT22;9169;44.492;11.372;2023-04-06T07:53:50;11.40;28.50
18085;DHT22;9169;44.492;11.372;2023-04-06T07:56:19;11.50;28.60
18085;DHT22;9169;44.492;11.372;2023-04-06T07:58:48;11.50;28.50
18085;DHT22;9169;44.492;11.372;2023-04-06T08:01:17;11.60;28.40
18085;DHT22;9169;44.492;11.372;2023-04-06T08:03:46;11.70;28.40
18085;DHT22;9169;44.492;11.372;2023-04-06T08:06:16;11.80;28.40
18085;DHT22;9169;44.492;11.372;2023-04-06T08:08:45;11.80;28.40
18085;DHT22;9169;44.492;11.372;2023-04-06T08:11:13;11.90;28.30
18085;DHT22;9169;44.492;11.372;2023-04-06T08:13:42;12.00;28.30
18085;DHT22;9169;44.492;11.372;2023-04-06T08:16:11;12.00;28.10
18085;DHT22;9169;44.492;11.372;2023-04-06T08:18:40;12.10;28.00
18085;DHT22;9169;44.492;11.372;2023-04-06T08:21:09;12.10;27.80
18085;DHT22;9169;44.492;11.372;2023-04-06T08:23:39;12.20;27.60
18085;DHT22;9169;44.492;11.372;2023-04-06T08:26:08;12.20;27.40
18085;DHT22;9169;44.492;11.372;2023-04-06T08:28:37;12.20;27.30
18085;DHT22;9169;44.492;11.372;2023-04-06T08:31:06;12.30;27.30
18085;DHT22;9169;44.492;11.372;2023-04-06T08:33:34;12.30;27.20
18085;DHT22;9169;44.492;11.372;2023-04-06T08:36:10;12.40;27.20
18085;DHT22;9169;44.492;11.372;2023-04-06T08:38:42;12.40;27.10
18085;DHT22;9169;44.492;11.372;2023-04-06T08:41:12;12.40;27.00
18085;DHT22;9169;44.492;11.372;2023-04-06T08:43:43;12.50;27.00
18085;DHT22;9169;44.492;11.372;2023-04-06T08:46:12;12.60;26.90
18085;DHT22;9169;44.492;11.372;2023-04-06T08:48:43;12.70;26.80
18085;DHT22;9169;44.492;11.372;2023-04-06T08:51:12;12.70;26.50
18085;DHT22;9169;44.492;11.372;2023-04-06T08:53:42;12.80;26.60
18085;DHT22;9169;44.492;11.372;2023-04-06T08:56:11;12.90;26.70
18085;DHT22;9169;44.492;11.372;2023-04-06T08:58:40;13.00;26.70
18085;DHT22;9169;44.492;11.372;2023-04-06T09:01:12;13.10;26.60
18085;DHT22;9169;44.492;11.372;2023-04-06T09:03:43;13.20;26.40
18085;DHT22;9169;44.492;11.372;2023-04-06T09:06:13;13.20;26.20
18085;DHT22;9169;44.492;11.372;2023-04-06T09:08:43;13.30;26.10
18085;DHT22;9169;44.492;11.372;2023-04-06T09:11:12;13.30;26.00
18085;DHT22;9169;44.492;11.372;2023-04-06T09:13:46;13.30;25.80
18085;DHT22;9169;44.492;11.372;2023-04-06T09:16:15;13.30;25.60
18085;DHT22;9169;44.492;11.372;2023-04-06T09:18:44;13.30;26.10
18085;DHT22;9169;44.492;11.372;2023-04-06T09:21:16;13.40;25.60
18085;DHT22;9169;44.492;11.372;2023-04-06T09:23:46;13.40;25.60
18085;DHT22;9169;44.492;11.372;2023-04-06T09:26:17;13.50;25.50
18085;DHT22;9169;44.492;11.372;2023-04-06T09:28:48;13.60;25.50
18085;DHT22;9169;44.492;11.372;2023-04-06T09:31:22;13.70;25.50
18085;DHT22;9169;44.492;11.372;2023-04-06T09:33:51;13.70;25.50
18085;DHT22;9169;44.492;11.372;2023-04-06T09:36:28;13.80;25.50
18085;DHT22;9169;44.492;11.372;2023-04-06T09:39:01;14.00;25.70
18085;DHT22;9169;44.492;11.372;2023-04-06T09:41:31;14.50;26.00
18085;DHT22;9169;44.492;11.372;2023-04-06T09:44:03;15.30;26.30
18085;DHT22;9169;44.492;11.372;2023-04-06T09:46:34;16.20;26.40
18085;DHT22;9169;44.492;11.372;2023-04-06T09:49:10;17.20;26.50
18085;DHT22;9169;44.492;11.372;2023-04-06T09:51:40;18.20;26.30
18085;DHT22;9169;44.492;11.372;2023-04-06T09:54:11;19.00;25.90
18085;DHT22;9169;44.492;11.372;2023-04-06T09:56:46;19.60;25.40
18085;DHT22;9169;44.492;11.372;2023-04-06T09:59:21;20.00;25.30
18085;DHT22;9169;44.492;11.372;2023-04-06T10:01:55;20.60;25.10
18085;DHT22;9169;44.492;11.372;2023-04-06T10:04:34;20.90;24.60
18085;DHT22;9169;44.492;11.372;2023-04-06T10:07:06;21.10;24.20
18085;DHT22;9169;44.492;11.372;2023-04-06T10:09:38;21.50;24.40
18085;DHT22;9169;44.492;11.372;2023-04-06T10:12:07;22.00;24.20
18085;DHT22;9169;44.492;11.372;2023-04-06T10:14:36;22.40;23.90
18085;DHT22;9169;44.492;11.372;2023-04-06T10:17:05;23.00;23.90
18085;DHT22;9169;44.492;11.372;2023-04-06T10:19:41;23.50;23.70
18085;DHT22;9169;44.492;11.372;2023-04-06T10:22:18;23.90;23.40
18085;DHT22;9169;44.492;11.372;2023-04-06T10:24:51;24.20;23.50
18085;DHT22;9169;44.492;11.372;2023-04-06T10:27:27;24.60;23.50
18085;DHT22;9169;44.492;11.372;2023-04-06T10:30:01;24.90;23.20
18085;DHT22;9169;44.492;11.372;2023-04-06T10:32:38;25.20;23.00
18085;DHT22;9169;44.492;11.372;2023-04-06T10:35:11;25.60;22.60
18085;DHT22;9169;44.492;11.372;2023-04-06T10:37:51;25.90;22.30
18085;DHT22;9169;44.492;11.372;2023-04-06T10:40:24;26.10;22.20
18085;DHT22;9169;44.492;11.372;2023-04-06T10:42:54;26.30;22.00
18085;DHT22;9169;44.492;11.372;2023-04-06T10:45:25;26.60;22.00
18085;DHT22;9169;44.492;11.372;2023-04-06T10:47:56;26.70;21.50
18085;DHT22;9169;44.492;11.372;2023-04-06T10:50:25;26.50;21.80
18085;DHT22;9169;44.492;11.372;2023-04-06T10:53:01;26.50;21.50
18085;DHT22;9169;44.492;11.372;2023-04-06T10:55:33;26.70;21.30
18085;DHT22;9169;44.492;11.372;2023-04-06T10:58:06;27.00;21.50
18085;DHT22;9169;44.492;11.372;2023-04-06T11:00:35;27.40;21.30
18085;DHT22;9169;44.492;11.372;2023-04-06T11:03:13;27.70;21.20
18085;DHT22;9169;44.492;11.372;2023-04-06T11:05:43;28.00;21.30
18085;DHT22;9169;44.492;11.372;2023-04-06T11:08:22;28.30;21.20
18085;DHT22;9169;44.492;11.372;2023-04-06T11:11:04;28.50;20.70
18085;DHT22;9169;44.492;11.372;2023-04-06T11:13:38;28.60;20.80
18085;DHT22;9169;44.492;11.372;2023-04-06T11:16:07;29.00;21.20
18085;DHT22;9169;44.492;11.372;2023-04-06T11:18:50;29.30;21.10
18085;DHT22;9169;44.492;11.372;2023-04-06T11:21:20;29.50;20.60
18085;DHT22;9169;44.492;11.372;2023-04-06T11:23:49;29.70;20.90
18085;DHT22;9169;44.492;11.372;2023-04-06T11:26:19;29.80;20.70
18085;DHT22;9169;44.492;11.372;2023-04-06T11:28:48;30.00;20.60
18085;DHT22;9169;44.492;11.372;2023-04-06T11:31:16;30.10;20.50
18085;DHT22;9169;44.492;11.372;2023-04-06T11:33:45;30.10;20.60
18085;DHT22;9169;44.492;11.372;2023-04-06T11:36:14;30.00;20.10
18085;DHT22;9169;44.492;11.372;2023-04-06T11:38:43;30.00;20.10
18085;DHT22;9169;44.492;11.372;2023-04-06T11:41:11;29.90;20.20
18085;DHT22;9169;44.492;11.372;2023-04-06T11:43:47;30.10;20.30
18085;DHT22;9169;44.492;11.372;2023-04-06T11:46:18;30.40;20.00
18085;DHT22;9169;44.492;11.372;2023-04-06T11:48:47;30.50;19.60
18085;DHT22;9169;44.492;11.372;2023-04-06T11:51:22;30.80;19.90
18085;DHT22;9169;44.492;11.372;2023-04-06T11:53:51;31.10;19.50
18085;DHT22;9169;44.492;11.372;2023-04-06T11:56:27;31.20;19.80
18085;DHT22;9169;44.492;11.372;2023-04-06T11:58:58;31.30;19.70
18085;DHT22;9169;44.492;11.372;2023-04-06T12:01:27;31.60;19.70
18085;DHT22;9169;44.492;11.372;2023-04-06T12:03:56;31.70;19.40
18085;DHT22;9169;44.492;11.372;2023-04-06T12:06:25;31.60;19.20
18085;DHT22;9169;44.492;11.372;2023-04-06T12:08:54;31.60;19.40
18085;DHT22;9169;44.492;11.372;2023-04-06T12:11:23;31.80;19.30
18085;DHT22;9169;44.492;11.372;2023-04-06T12:13:51;31.50;18.80
18085;DHT22;9169;44.492;11.372;2023-04-06T12:16:22;31.10;18.70
18085;DHT22;9169;44.492;11.372;2023-04-06T12:18:51;31.00;18.90
18085;DHT22;9169;44.492;11.372;2023-04-06T12:21:19;31.10;19.30
18085;DHT22;9169;44.492;11.372;2023-04-06T12:23:48;31.50;19.40
18085;DHT22;9169;44.492;11.372;2023-04-06T12:26:17;32.00;19.50
18085;DHT22;9169;44.492;11.372;2023-04-06T12:28:46;32.30;19.30
18085;DHT22;9169;44.492;11.372;2023-04-06T12:31:15;32.60;18.90
18085;DHT22;9169;44.492;11.372;2023-04-06T12:33:47;32.60;18.30
18085;DHT22;9169;44.492;11.372;2023-04-06T12:36:17;32.50;18.90
18085;DHT22;9169;44.492;11.372;2023-04-06T12:38:47;32.50;18.80
18085;DHT22;9169;44.492;11.372;2023-04-06T12:41:17;32.60;19.00
18085;DHT22;9169;44.492;11.372;2023-04-06T12:43:46;32.60;18.80
18085;DHT22;9169;44.492;11.372;2023-04-06T12:46:14;32.40;18.90
18085;DHT22;9169;44.492;11.372;2023-04-06T12:48:44;32.10;18.60
18085;DHT22;9169;44.492;11.372;2023-04-06T12:51:13;31.90;18.30
18085;DHT22;9169;44.492;11.372;2023-04-06T12:53:42;31.90;18.70
18085;DHT22;9169;44.492;11.372;2023-04-06T12:56:12;31.80;18.90
18085;DHT22;9169;44.492;11.372;2023-04-06T12:58:41;32.00;18.80
18085;DHT22;9169;44.492;11.372;2023-04-06T13:01:10;31.70;18.50
18085;DHT22;9169;44.492;11.372;2023-04-06T13:03:40;31.50;18.80
18085;DHT22;9169;44.492;11.372;2023-04-06T13:06:11;31.40;18.90
18085;DHT22;9169;44.492;11.372;2023-04-06T13:08:40;31.60;19.20
18085;DHT22;9169;44.492;11.372;2023-04-06T13:11:09;31.80;18.70
18085;DHT22;9169;44.492;11.372;2023-04-06T13:13:38;31.60;18.90
18085;DHT22;9169;44.492;11.372;2023-04-06T13:16:08;31.90;18.90
18085;DHT22;9169;44.492;11.372;2023-04-06T13:18:37;32.00;18.90
18085;DHT22;9169;44.492;11.372;2023-04-06T13:21:07;32.00;19.10
18085;DHT22;9169;44.492;11.372;2023-04-06T13:23:37;32.00;18.80
18085;DHT22;9169;44.492;11.372;2023-04-06T13:26:06;32.10;18.50
18085;DHT22;9169;44.492;11.372;2023-04-06T13:28:36;32.30;18.70
18085;DHT22;9169;44.492;11.372;2023-04-06T13:31:06;32.50;18.80
18085;DHT22;9169;44.492;11.372;2023-04-06T13:33:35;32.60;18.80
18085;DHT22;9169;44.492;11.372;2023-04-06T13:36:06;32.50;18.30
18085;DHT22;9169;44.492;11.372;2023-04-06T13:38:39;32.40;18.40
18085;DHT22;9169;44.492;11.372;2023-04-06T13:41:08;32.60;18.60
18085;DHT22;9169;44.492;11.372;2023-04-06T13:43:37;32.90;18.90
18085;DHT22;9169;44.492;11.372;2023-04-06T13:46:06;33.30;18.80
18085;DHT22;9169;44.492;11.372;2023-04-06T13:48:35;33.60;18.70
18085;DHT22;9169;44.492;11.372;2023-04-06T13:51:10;33.90;18.60
18085;DHT22;9169;44.492;11.372;2023-04-06T13:53:40;33.90;18.30
18085;DHT22;9169;44.492;11.372;2023-04-06T13:56:08;33.60;18.00
18085;DHT22;9169;44.492;11.372;2023-04-06T13:58:37;33.40;18.50
18085;DHT22;9169;44.492;11.372;2023-04-06T14:01:07;33.50;18.50
18085;DHT22;9169;44.492;11.372;2023-04-06T14:03:37;33.70;18.50
18085;DHT22;9169;44.492;11.372;2023-04-06T14:06:12;33.70;18.40
18085;DHT22;9169;44.492;11.372;2023-04-06T14:08:50;33.90;18.40
18085;DHT22;9169;44.492;11.372;2023-04-06T14:11:19;34.20;18.20
18085;DHT22;9169;44.492;11.372;2023-04-06T14:13:47;34.20;18.00
18085;DHT22;9169;44.492;11.372;2023-04-06T14:16:16;34.30;18.40
18085;DHT22;9169;44.492;11.372;2023-04-06T14:18:48;34.50;18.40
18085;DHT22;9169;44.492;11.372;2023-04-06T14:21:16;34.80;18.50
18085;DHT22;9169;44.492;11.372;2023-04-06T14:23:50;34.90;18.10
18085;DHT22;9169;44.492;11.372;2023-04-06T14:26:19;34.80;18.00
18085;DHT22;9169;44.492;11.372;2023-04-06T14:28:48;34.60;18.30
18085;DHT22;9169;44.492;11.372;2023-04-06T14:31:17;34.20;17.60
18085;DHT22;9169;44.492;11.372;2023-04-06T14:33:46;33.80;17.80
18085;DHT22;9169;44.492;11.372;2023-04-06T14:36:14;33.60;17.40
18085;DHT22;9169;44.492;11.372;2023-04-06T14:38:43;33.10;17.50
18085;DHT22;9169;44.492;11.372;2023-04-06T14:41:18;32.40;17.30
18085;DHT22;9169;44.492;11.372;2023-04-06T14:43:47;31.90;17.90
18085;DHT22;9169;44.492;11.372;2023-04-06T14:46:16;31.50;17.90
18085;DHT22;9169;44.492;11.372;2023-04-06T14:48:45;31.00;18.00
18085;DHT22;9169;44.492;11.372;2023-04-06T14:51:14;30.50;17.90
18085;DHT22;9169;44.492;11.372;2023-04-06T14:53:43;30.00;17.90
18085;DHT22;9169;44.492;11.372;2023-04-06T14:56:12;29.50;17.90
18085;DHT22;9169;44.492;11.372;2023-04-06T14:58:43;29.20;18.10
18085;DHT22;9169;44.492;11.372;2023-04-06T15:01:21;28.90;18.10
18085;DHT22;9169;44.492;11.372;2023-04-06T15:03:50;28.60;18.40
18085;DHT22;9169;44.492;11.372;2023-04-06T15:06:19;28.30;18.50
18085;DHT22;9169;44.492;11.372;2023-04-06T15:08:48;28.10;18.50
18085;DHT22;9169;44.492;11.372;2023-04-06T15:11:17;27.80;18.50
18085;DHT22;9169;44.492;11.372;2023-04-06T15:13:47;27.40;18.70
18085;DHT22;9169;44.492;11.372;2023-04-06T15:16:16;27.00;18.60
18085;DHT22;9169;44.492;11.372;2023-04-06T15:18:45;26.80;19.20
18085;DHT22;9169;44.492;11.372;2023-04-06T15:21:14;26.50;18.90
18085;DHT22;9169;44.492;11.372;2023-04-06T15:23:42;26.30;19.00
18085;DHT22;9169;44.492;11.372;2023-04-06T15:26:11;26.10;19.00
18085;DHT22;9169;44.492;11.372;2023-04-06T15:28:40;25.80;19.00
18085;DHT22;9169;44.492;11.372;2023-04-06T15:31:17;25.50;19.20
18085;DHT22;9169;44.492;11.372;2023-04-06T15:33:54;25.30;19.20
18085;DHT22;9169;44.492;11.372;2023-04-06T15:36:27;25.30;19.50
18085;DHT22;9169;44.492;11.372;2023-04-06T15:38:57;25.10;19.60
18085;DHT22;9169;44.492;11.372;2023-04-06T15:41:27;25.00;19.60
18085;DHT22;9169;44.492;11.372;2023-04-06T15:43:55;24.80;19.60
18085;DHT22;9169;44.492;11.372;2023-04-06T15:46:27;24.60;19.70
18085;DHT22;9169;44.492;11.372;2023-04-06T15:48:56;24.50;19.80
18085;DHT22;9169;44.492;11.372;2023-04-06T15:51:24;24.40;19.80
18085;DHT22;9169;44.492;11.372;2023-04-06T15:53:53;24.20;19.80
18085;DHT22;9169;44.492;11.372;2023-04-06T15:56:23;24.10;19.70
18085;DHT22;9169;44.492;11.372;2023-04-06T15:58:52;24.00;19.80